Beale Air Force Base
KBAB : now visible

Airfield :











YOU CAN JOIN US ON...

 
LOGIN :

Register | Disclaimer

   EN    FR    IT 

 









Legend :    VFR   Marginal VFR   IFR   Intensive IFR   Very Intensive IFR
Visi :
Ceiling :
>= 8 km
>= 3000ft
5 to 8 km
1000 to 3000 ft
1500m to 5 km
500 to 1000 ft
800 to 1500m
200 to 500 ft
< 800m
< 200 ft
Symbols :   Thunderstorms  Fog  Heavy snow  Heavy precipitations  Wind > 20 kt






- Airport Elevation : 113 ft


KBAB - Beale Air Force Base

CURRENT METAR :
  • 010058Z AUTO 17007KT 10SM CLR 20/11 A3000 RMK AO2 SLP162 T02020106 $

EXPIRED METARs :
  • 312358Z AUTO 15008KT 10SM CLR 21/11 A3002 RMK AO2 SLP169 T02140105 10218 20150 57030 $
  • 312258Z AUTO 13004KT 10SM SCT047 BKN070 21/11 A3004 RMK AO2 SLP175 T02110111 $

TAF AMD TAF KBAB
Valid from the 31 at 23:00 until the 02 at 01:00 UTC


312350Z 3123/0201 17009KT 9999 FEW050 QNH2998INS
BECMG 0102/0103 VRB06KT 9999 FEW040 QNH2995INS
BECMG 0112/0113 VRB06KT 9999 FEW009 FEW050 QNH2993INS
BECMG 0118/0119 32010G15KT 9999 SKC QNH2990INS
TEMPO 0123/0201 34012G20KT TX22/0100Z TN08/0114Z LAST NO AMDS AFT 3123 NEXT 0214



MET'MAP, your aeronautical weather chart ! - Copyright ORBIFLY December 2007 - Disclaimer

ORBIFLY MET'MAP TEAM :

Programming & Development : Alexandra Zaïnal
Concept & original design : Baudouin d'Aumeries
Assistance for programming : Marc-Olivier Méhu
Technical & hardware support : Manuel Goepfert

Contact : metmap@orbifly.com




SOURCES & CREDITS :

   NOAA       Earth
Advisory